M I D A S
Marine Information and Data Acquisition System
Tripno 1151 of the Zeeleeuw from 2006-08-23 06:29:35 to 2006-08-23 13:17:47
Back to CruiseResearch ActivitiesStationsMapUnderway DataData graphs

EquipmentUnitsComment
TimeDGPSUTC
LatitudeDGPSDM.mWGS84
LongitudeDGPSDM.mWGS84
HeadingGyrodeg 
SOGDGPSknotsSpeed over ground
COGDGPSdegCourse over ground
DepthEcho soundermeters200 kHz
Missing or incorrect values are displayed as -999
Navigation data collected by the RV Zeeleeuw from 2006-08-23 06:31:14 to 2006-08-23 13:29:55
                                                                                    Next 1000 lines
Time Latitude Longitude Heading SOG COG Depth
2006-08-23 06:31:24 51°13.602 2°56.096 108.8 0.5 294 5.2
2006-08-23 06:31:30 51°13.603 2°56.094 108.7 0.8 291 5.2
2006-08-23 06:31:34 51°13.604 2°56.092 108.5 0.9 292 4.6
2006-08-23 06:31:40 51°13.604 2°56.089 108.3 1.2 289 4.7
2006-08-23 06:31:44 51°13.605 2°56.087 107.9 1.4 292 4.9
2006-08-23 06:31:50 51°13.606 2°56.084 107 1.3 291 -999
2006-08-23 06:31:55 51°13.606 2°56.081 106 1.3 290 -999
2006-08-23 06:32:00 51°13.607 2°56.078 105.5 1.3 290 -999
2006-08-23 06:32:05 51°13.608 2°56.075 105.5 1.5 288 -999
2006-08-23 06:32:10 51°13.608 2°56.071 105.7 1.7 288 -999
2006-08-23 06:32:15 51°13.609 2°56.067 106.2 1.8 288 -999
2006-08-23 06:32:20 51°13.61 2°56.063 106.6 2 288 6.9
2006-08-23 06:32:24 51°13.611 2°56.059 107 2.2 286 -999
2006-08-23 06:32:30 51°13.612 2°56.052 107.6 2.6 288 -999
2006-08-23 06:32:35 51°13.613 2°56.046 108.8 2.9 287 -999
2006-08-23 06:32:40 51°13.614 2°56.039 110.2 3.2 288 -999
2006-08-23 06:32:45 51°13.616 2°56.032 111.3 3.3 288 -999
2006-08-23 06:32:50 51°13.618 2°56.025 112.5 3.4 289 -999
2006-08-23 06:32:55 51°13.62 2°56.018 113.8 3.5 291 -999
2006-08-23 06:33:00 51°13.621 2°56.01 115.1 3.6 290 -999
2006-08-23 06:33:05 51°13.623 2°56.002 115.9 3.8 292 -999
2006-08-23 06:33:10 51°13.626 2°55.994 116.8 4.1 293 -999
2006-08-23 06:33:15 51°13.628 2°55.985 118.1 4.3 295 -999
2006-08-23 06:33:20 51°13.631 2°55.976 119.4 4.5 296 -999
2006-08-23 06:33:25 51°13.634 2°55.968 120.7 4.6 297 -999
2006-08-23 06:33:30 51°13.637 2°55.959 122 4.7 299 -999
2006-08-23 06:33:35 51°13.64 2°55.95 123.6 4.7 301 -999
2006-08-23 06:33:40 51°13.644 2°55.941 124.7 4.7 302 -999
2006-08-23 06:33:45 51°13.647 2°55.932 125.3 4.7 302 -999
2006-08-23 06:33:50 51°13.651 2°55.923 125.5 4.9 302 -999
2006-08-23 06:33:55 51°13.655 2°55.914 125.6 5 304 -999
2006-08-23 06:34:01 51°13.66 2°55.903 125.7 5.1 304 -999
2006-08-23 06:34:05 51°13.663 2°55.895 125.7 5.1 305 -999
2006-08-23 06:34:10 51°13.667 2°55.886 125.3 5 304 -999
2006-08-23 06:34:15 51°13.67 2°55.877 124.4 4.9 304 -999
2006-08-23 06:34:20 51°13.674 2°55.868 123.2 4.7 302 -999
2006-08-23 06:34:25 51°13.677 2°55.86 121.7 4.7 302 -999
2006-08-23 06:34:30 51°13.68 2°55.851 119.9 4.6 300 -999
2006-08-23 06:34:35 51°13.683 2°55.842 118.1 4.5 299 -999
2006-08-23 06:34:40 51°13.686 2°55.834 116.1 4.3 298 -999
2006-08-23 06:34:45 51°13.688 2°55.826 113.9 4.2 296 -999
2006-08-23 06:34:50 51°13.691 2°55.818 111.8 4 294 -999
2006-08-23 06:34:55 51°13.693 2°55.81 109.7 3.9 293 -999
2006-08-23 06:35:00 51°13.694 2°55.802 107.5 3.8 291 -999
2006-08-23 06:35:05 51°13.696 2°55.794 105.4 3.7 290 -999
2006-08-23 06:35:10 51°13.697 2°55.787 103.1 3.5 288 -999
2006-08-23 06:35:15 51°13.698 2°55.78 101.2 3.3 286 -999
2006-08-23 06:35:20 51°13.7 2°55.773 99.5 3.2 285 -999
2006-08-23 06:35:25 51°13.701 2°55.768 97.8 2.9 285 -999
2006-08-23 06:35:30 51°13.702 2°55.763 95.6 2.5 283 -999
2006-08-23 06:35:35 51°13.703 2°55.758 92.6 2.1 284 12.3
2006-08-23 06:35:40 51°13.703 2°55.755 89.8 1.6 285 12.1
2006-08-23 06:35:45 51°13.704 2°55.753 86.3 1.2 285 11.9
2006-08-23 06:35:49 51°13.704 2°55.752 81.7 0.8 297 12
2006-08-23 06:35:54 51°13.704 2°55.751 77.3 0.6 309 12
2006-08-23 06:35:59 51°13.705 2°55.751 72.5 0.5 341 12
2006-08-23 06:36:05 51°13.706 2°55.752 67.4 0.5 359 12
2006-08-23 06:36:10 51°13.707 2°55.752 61.7 0.7 23 12.2
2006-08-23 06:36:15 51°13.708 2°55.753 56.8 0.7 19 12.4
2006-08-23 06:36:20 51°13.709 2°55.753 51 0.6 15 12.4
2006-08-23 06:36:25 51°13.709 2°55.753 47.3 0.5 7 12.3
2006-08-23 06:36:29 51°13.71 2°55.753 43.8 0.4 353 12.3
2006-08-23 06:36:34 51°13.71 2°55.753 40.7 0.3 327 12.3
2006-08-23 06:36:39 51°13.71 2°55.752 37.7 0.3 292 12.4
2006-08-23 06:36:44 51°13.71 2°55.751 35.1 0.4 256 12.5
2006-08-23 06:36:50 51°13.709 2°55.75 32.6 0.5 239 12.6
2006-08-23 06:36:54 51°13.709 2°55.749 30.4 0.7 232 12.6
2006-08-23 06:36:59 51°13.708 2°55.747 28.3 0.8 228 12.5
2006-08-23 06:37:04 51°13.707 2°55.746 26.3 0.7 227 12.2
2006-08-23 06:37:09 51°13.706 2°55.745 24.7 0.7 226 11.9
2006-08-23 06:37:14 51°13.706 2°55.744 23.1 0.6 226 11.8
2006-08-23 06:37:20 51°13.705 2°55.743 21 0.5 227 -999
2006-08-23 06:37:25 51°13.705 2°55.743 19.4 0.4 240 4.8
2006-08-23 06:37:30 51°13.705 2°55.742 16.4 0.2 283 4.6
2006-08-23 06:37:35 51°13.706 2°55.742 13 0.3 321 4.9
2006-08-23 06:37:39 51°13.706 2°55.742 9.4 0.4 337 11.6
2006-08-23 06:37:44 51°13.707 2°55.741 6.2 0.6 342 11.6
2006-08-23 06:37:49 51°13.708 2°55.741 1.9 0.7 341 11.3
2006-08-23 06:37:54 51°13.709 2°55.74 357.5 0.8 341 11.3
2006-08-23 06:38:00 51°13.711 2°55.739 352.8 1 339 11.2
2006-08-23 06:38:04 51°13.712 2°55.738 348.1 1.1 338 11.5
2006-08-23 06:38:09 51°13.714 2°55.737 343.2 1.4 335 11.5
2006-08-23 06:38:14 51°13.716 2°55.735 339.6 1.6 332 11.1
2006-08-23 06:38:20 51°13.719 2°55.733 335.4 2 329 10.7
2006-08-23 06:38:24 51°13.721 2°55.73 333.6 2.4 329 10.6
2006-08-23 06:38:29 51°13.725 2°55.727 333.1 2.9 328 10
2006-08-23 06:38:34 51°13.728 2°55.723 333 3.2 329 9.5
2006-08-23 06:38:39 51°13.733 2°55.718 332.4 3.7 327 9.2
2006-08-23 06:38:44 51°13.738 2°55.714 332.4 4 328 9
2006-08-23 06:38:49 51°13.743 2°55.709 332.8 4.3 329 8.8
2006-08-23 06:38:54 51°13.748 2°55.703 332.6 4.5 328 8.8
2006-08-23 06:39:00 51°13.755 2°55.697 332.5 4.8 328 8.8
2006-08-23 06:39:05 51°13.761 2°55.691 333.3 4.9 329 9
2006-08-23 06:39:09 51°13.766 2°55.686 333.9 5.1 329 9
2006-08-23 06:39:14 51°13.772 2°55.68 333.9 5.3 330 9
2006-08-23 06:39:19 51°13.779 2°55.674 333.9 5.4 329 9
2006-08-23 06:39:24 51°13.786 2°55.668 334.8 5.6 332 9.2
2006-08-23 06:39:30 51°13.794 2°55.662 336 5.7 333 9.5
2006-08-23 06:39:34 51°13.8 2°55.657 336.9 5.8 333 9.3
2006-08-23 06:39:40 51°13.809 2°55.65 337.6 5.9 334 9.4
2006-08-23 06:39:44 51°13.815 2°55.645 338 6 334 9.5
2006-08-23 06:39:50 51°13.824 2°55.639 338.2 6.1 335 9.6
2006-08-23 06:39:54 51°13.831 2°55.634 338.3 6.2 335 9.6
2006-08-23 06:40:00 51°13.84 2°55.627 338.1 6.3 335 9.4
2006-08-23 06:40:05 51°13.848 2°55.62 337.9 6.3 334 9.4
2006-08-23 06:40:10 51°13.856 2°55.614 337.5 6.4 334 8.9
2006-08-23 06:40:14 51°13.863 2°55.609 337.5 6.5 334 8.7
2006-08-23 06:40:20 51°13.873 2°55.602 338.2 6.5 335 8.8
2006-08-23 06:40:24 51°13.879 2°55.597 338.3 6.6 334 8.8
2006-08-23 06:40:30 51°13.889 2°55.59 338.7 6.6 336 9.2
2006-08-23 06:40:34 51°13.896 2°55.585 339.3 6.6 335 9.5
2006-08-23 06:40:40 51°13.906 2°55.578 339.3 6.6 336 9.2
2006-08-23 06:40:45 51°13.914 2°55.572 339.4 6.7 336 10.1
2006-08-23 06:40:50 51°13.923 2°55.566 339.7 6.7 337 9.4
2006-08-23 06:40:54 51°13.93 2°55.561 340.6 6.7 337 9.6
2006-08-23 06:41:00 51°13.94 2°55.554 340.7 6.7 337 9.7
2006-08-23 06:41:05 51°13.949 2°55.548 340.6 6.8 337 9.9
2006-08-23 06:41:10 51°13.957 2°55.542 340.4 6.8 337 9.8
2006-08-23 06:41:14 51°13.964 2°55.538 340.4 6.8 337 9.6
2006-08-23 06:41:20 51°13.975 2°55.53 340.4 6.8 336 9.4
2006-08-23 06:41:25 51°13.984 2°55.524 339.8 6.9 336 9.4
2006-08-23 06:41:29 51°13.991 2°55.519 339.6 7 336 9.4
2006-08-23 06:41:34 51°14 2°55.512 339.4 7.1 336 9.2
2006-08-23 06:41:40 51°14.01 2°55.505 339.4 7.1 336 9.2
2006-08-23 06:41:45 51°14.019 2°55.498 339.5 7.1 336 9.1
2006-08-23 06:41:50 51°14.028 2°55.492 339.6 7.2 336 9
2006-08-23 06:41:54 51°14.036 2°55.487 339.5 7.2 335 9
2006-08-23 06:42:00 51°14.047 2°55.479 339.5 7.3 336 9.1
2006-08-23 06:42:04 51°14.055 2°55.473 339.6 7.4 336 9.1
2006-08-23 06:42:08 51°14.062 2°55.468 339.8 7.6 336 9.1
2006-08-23 06:42:14 51°14.074 2°55.459 339.8 7.7 336 9.1
2006-08-23 06:42:19 51°14.084 2°55.452 339.3 7.8 335 9.1
2006-08-23 06:42:24 51°14.094 2°55.444 339.1 7.8 335 9.1
2006-08-23 06:42:29 51°14.103 2°55.437 339.2 7.9 335 9.1
2006-08-23 06:42:35 51°14.116 2°55.428 338.9 8 335 9
2006-08-23 06:42:39 51°14.124 2°55.422 338.9 8.1 335 9.1
2006-08-23 06:42:44 51°14.134 2°55.414 339.2 8.1 335 9.1
2006-08-23 06:42:49 51°14.144 2°55.406 339.1 8.2 334 9.1
2006-08-23 06:42:54 51°14.155 2°55.399 338.7 8.2 334 9.1
2006-08-23 06:43:00 51°14.167 2°55.389 338 8.3 333 9.1
2006-08-23 06:43:04 51°14.175 2°55.382 336.7 8.4 332 -999
2006-08-23 06:43:10 51°14.187 2°55.37 335.3 8.4 330 9.1
2006-08-23 06:43:14 51°14.195 2°55.362 333.4 8.5 328 9.1
2006-08-23 06:43:19 51°14.205 2°55.351 331.2 8.6 326 9.1
2006-08-23 06:43:25 51°14.217 2°55.338 329.5 8.7 325 9.1
2006-08-23 06:43:30 51°14.227 2°55.326 328.1 8.9 323 -999
2006-08-23 06:43:35 51°14.236 2°55.313 326.3 8.9 321 -999
2006-08-23 06:43:40 51°14.246 2°55.3 324.1 9 319 9.2
2006-08-23 06:43:44 51°14.253 2°55.288 321.8 9.1 317 9.1
2006-08-23 06:43:50 51°14.264 2°55.271 319.4 9.2 314 9.1
2006-08-23 06:43:55 51°14.272 2°55.255 316.8 9.2 312 -999
2006-08-23 06:44:00 51°14.28 2°55.239 315 9.3 310 9.1
2006-08-23 06:44:05 51°14.289 2°55.223 313.7 9.3 309 9.1
2006-08-23 06:44:10 51°14.296 2°55.206 311.6 9.5 307 9.1
2006-08-23 06:44:13 51°14.301 2°55.196 310 9.5 306 9.1
2006-08-23 06:44:20 51°14.312 2°55.172 310.2 9.6 307 8.7
2006-08-23 06:44:24 51°14.318 2°55.159 310.6 9.5 307 8.8
2006-08-23 06:44:29 51°14.327 2°55.142 311.4 9.6 308 9.2
2006-08-23 06:44:35 51°14.337 2°55.122 312 9.6 308 9.1
2006-08-23 06:44:40 51°14.345 2°55.106 312.5 9.8 309 9.2
2006-08-23 06:44:44 51°14.352 2°55.093 313.7 9.8 311 9.2
2006-08-23 06:44:50 51°14.364 2°55.074 315.4 9.9 313 9.2
2006-08-23 06:44:54 51°14.372 2°55.061 318 10 315 9.4
2006-08-23 06:45:00 51°14.385 2°55.043 320 10.3 318 9.5
2006-08-23 06:45:05 51°14.396 2°55.029 322.7 10.4 320 9.5
2006-08-23 06:45:09 51°14.405 2°55.017 325.1 10.5 322 9.4
2006-08-23 06:45:14 51°14.417 2°55.004 327.9 10.6 324 9.2
2006-08-23 06:45:20 51°14.432 2°54.988 331.4 10.7 325 9.1
2006-08-23 06:45:24 51°14.442 2°54.976 331.9 10.8 325 9.1
2006-08-23 06:45:30 51°14.456 2°54.958 331.1 11 322 8.7
2006-08-23 06:45:34 51°14.465 2°54.945 329.9 11.1 319 8.5
2006-08-23 06:45:39 51°14.477 2°54.929 328.8 11.3 319 8.6
2006-08-23 06:45:44 51°14.489 2°54.912 328.8 11.3 319 8.4
2006-08-23 06:45:50 51°14.504 2°54.893 329.7 11.4 320 8.4
2006-08-23 06:45:54 51°14.514 2°54.88 330.9 11.5 321 8.4
2006-08-23 06:45:59 51°14.526 2°54.864 331.6 11.6 321 8.3
2006-08-23 06:46:05 51°14.541 2°54.845 331.8 11.7 321 8.3
2006-08-23 06:46:10 51°14.554 2°54.828 331.5 11.8 321 8.1
2006-08-23 06:46:15 51°14.567 2°54.812 331.4 11.8 321 8.1
2006-08-23 06:46:20 51°14.58 2°54.796 331.8 11.7 322 8.1
2006-08-23 06:46:24 51°14.59 2°54.783 332 11.8 322 8.1
2006-08-23 06:46:30 51°14.606 2°54.764 332 11.7 322 8.1
2006-08-23 06:46:34 51°14.616 2°54.751 332.1 11.8 322 8.1
2006-08-23 06:46:40 51°14.632 2°54.732 332.2 11.9 322 8.1
2006-08-23 06:46:44 51°14.642 2°54.719 332.2 11.9 322 8
2006-08-23 06:46:50 51°14.658 2°54.7 332.2 11.8 323 8.1
2006-08-23 06:46:54 51°14.668 2°54.687 332.4 11.9 323 8
2006-08-23 06:47:00 51°14.684 2°54.668 332.6 11.9 323 8.1
2006-08-23 06:47:04 51°14.694 2°54.655 332.8 11.9 323 8.1
2006-08-23 06:47:09 51°14.708 2°54.64 332.8 11.9 323 8
2006-08-23 06:47:14 51°14.721 2°54.624 333 11.9 323 8
2006-08-23 06:47:20 51°14.737 2°54.606 333.6 11.9 324 8
2006-08-23 06:47:24 51°14.748 2°54.593 333.8 11.9 324 8.1
2006-08-23 06:47:29 51°14.761 2°54.578 333.6 11.9 324 8.1
2006-08-23 06:47:34 51°14.774 2°54.562 333.1 12 323 8
2006-08-23 06:47:40 51°14.79 2°54.543 333 11.8 323 8
2006-08-23 06:47:45 51°14.803 2°54.528 332.8 11.8 323 8
2006-08-23 06:47:50 51°14.816 2°54.512 332.6 11.8 323 7.9
2006-08-23 06:47:54 51°14.827 2°54.499 332.5 11.8 323 7.9
2006-08-23 06:48:00 51°14.842 2°54.48 332.4 11.8 323 8
2006-08-23 06:48:05 51°14.856 2°54.465 332.4 11.8 324 7.9
2006-08-23 06:48:10 51°14.869 2°54.45 332.5 11.7 324 7.8
2006-08-23 06:48:14 51°14.879 2°54.438 332.6 11.7 324 7.9
2006-08-23 06:48:19 51°14.893 2°54.423 332.8 11.8 325 7.9
2006-08-23 06:48:24 51°14.906 2°54.408 333.1 11.7 325 7.8
2006-08-23 06:48:30 51°14.922 2°54.39 333.2 11.7 325 7.8
2006-08-23 06:48:34 51°14.932 2°54.378 333.1 11.7 325 7.8
2006-08-23 06:48:40 51°14.948 2°54.36 333 11.7 324 7.6
2006-08-23 06:48:44 51°14.959 2°54.348 333 11.7 324 5.6
2006-08-23 06:48:50 51°14.974 2°54.33 332.8 11.6 324 5.3
2006-08-23 06:48:54 51°14.985 2°54.318 332.5 11.5 324 7.4
2006-08-23 06:48:59 51°14.997 2°54.302 332.1 11.6 323 7.3
2006-08-23 06:49:04 51°15.01 2°54.287 332.2 11.5 323 7.3
2006-08-23 06:49:10 51°15.026 2°54.269 332.6 11.5 324 7.4
2006-08-23 06:49:14 51°15.036 2°54.257 333 11.5 324 7.3
2006-08-23 06:49:19 51°15.049 2°54.242 333.3 11.6 324 7.4
2006-08-23 06:49:25 51°15.065 2°54.224 333.7 11.6 324 7.4
2006-08-23 06:49:29 51°15.075 2°54.212 333.8 11.6 324 7.5
2006-08-23 06:49:34 51°15.089 2°54.197 334.1 11.7 324 7.5
2006-08-23 06:49:40 51°15.104 2°54.179 334.2 11.6 324 7.5
2006-08-23 06:49:45 51°15.117 2°54.164 334 11.6 324 7.6
2006-08-23 06:49:50 51°15.13 2°54.149 333.9 11.7 324 7.6
2006-08-23 06:49:54 51°15.141 2°54.136 333.8 11.7 323 7.6
2006-08-23 06:50:00 51°15.156 2°54.118 333.6 11.7 323 7.7
2006-08-23 06:50:05 51°15.169 2°54.102 333.3 11.8 323 7.7
2006-08-23 06:50:10 51°15.183 2°54.087 333.3 11.8 323 7.7
2006-08-23 06:50:14 51°15.193 2°54.074 333.6 11.8 323 7.8
2006-08-23 06:50:19 51°15.206 2°54.059 333.8 11.8 324 7.9
2006-08-23 06:50:24 51°15.22 2°54.043 334.2 11.8 324 7.9
2006-08-23 06:50:29 51°15.233 2°54.029 334.6 11.8 325 7.9
2006-08-23 06:50:34 51°15.246 2°54.014 335.4 11.8 325 8
2006-08-23 06:50:40 51°15.263 2°53.996 336 11.8 326 8.1
2006-08-23 06:50:43 51°15.271 2°53.988 336.9 11.8 326 8.1
2006-08-23 06:50:50 51°15.29 2°53.967 337 11.8 326 8.3
2006-08-23 06:50:54 51°15.301 2°53.955 336.8 11.8 326 8.3
2006-08-23 06:51:00 51°15.317 2°53.937 336.7 11.8 326 8.4
2006-08-23 06:51:04 51°15.328 2°53.925 336.5 11.9 325 8.4
2006-08-23 06:51:10 51°15.344 2°53.907 336.1 11.8 324 8.7
2006-08-23 06:51:15 51°15.357 2°53.892 336 11.8 325 8.6
2006-08-23 06:51:20 51°15.37 2°53.877 335.9 11.9 324 8.6
2006-08-23 06:51:24 51°15.381 2°53.865 335.9 11.9 325 8.7
2006-08-23 06:51:29 51°15.395 2°53.85 336.3 11.8 325 8.6
2006-08-23 06:51:34 51°15.408 2°53.835 336.7 11.8 325 8.6
2006-08-23 06:51:39 51°15.422 2°53.82 337.1 11.8 325 8.7
2006-08-23 06:51:44 51°15.435 2°53.805 337.1 11.8 326 8.8
2006-08-23 06:51:50 51°15.452 2°53.787 337.3 11.9 325 8.9
2006-08-23 06:51:54 51°15.462 2°53.775 337.4 11.9 326 9
2006-08-23 06:52:00 51°15.479 2°53.758 337.3 11.8 325 8.9
2006-08-23 06:52:05 51°15.492 2°53.743 337.3 11.8 326 9
2006-08-23 06:52:09 51°15.503 2°53.731 337.5 11.8 326 9.1
2006-08-23 06:52:14 51°15.517 2°53.717 337.7 11.8 326 9.1
2006-08-23 06:52:20 51°15.533 2°53.7 337.8 11.8 326 9.2
2006-08-23 06:52:24 51°15.545 2°53.689 338.9 11.8 329 9.1
2006-08-23 06:52:30 51°15.562 2°53.673 340.4 11.8 329 9.2
2006-08-23 06:52:34 51°15.573 2°53.663 341.4 11.8 330 9.3
2006-08-23 06:52:39 51°15.587 2°53.65 341.8 11.8 330 9.2
2006-08-23 06:52:44 51°15.601 2°53.636 341.2 11.8 329 9.3
2006-08-23 06:52:50 51°15.618 2°53.619 340.7 11.8 328 9.3
2006-08-23 06:52:54 51°15.629 2°53.608 339.6 11.8 328 9.4
2006-08-23 06:52:59 51°15.642 2°53.594 338.5 11.9 326 9.5
2006-08-23 06:53:04 51°15.656 2°53.579 337.7 12 326 9.5
2006-08-23 06:53:10 51°15.673 2°53.561 337.3 11.9 326 9.5
2006-08-23 06:53:15 51°15.686 2°53.546 337.1 11.9 326 9.6
2006-08-23 06:53:20 51°15.7 2°53.531 336.7 12 325 9.6
2006-08-23 06:53:25 51°15.713 2°53.516 336.6 11.9 325 9.6
2006-08-23 06:53:30 51°15.727 2°53.501 336.3 11.9 326 9.6
2006-08-23 06:53:35 51°15.741 2°53.487 336.6 11.9 326 9.7
2006-08-23 06:53:40 51°15.755 2°53.472 337.1 11.9 327 9.8
2006-08-23 06:53:44 51°15.766 2°53.461 337.5 11.9 327 9.8
2006-08-23 06:53:50 51°15.782 2°53.444 337.5 11.9 327 9.8
2006-08-23 06:53:54 51°15.793 2°53.432 337.3 11.9 327 9.9
2006-08-23 06:54:00 51°15.81 2°53.415 337.1 11.9 327 10
2006-08-23 06:54:03 51°15.818 2°53.406 337.3 11.9 327 10
2006-08-23 06:54:10 51°15.838 2°53.386 337.4 11.9 327 10
2006-08-23 06:54:14 51°15.849 2°53.375 337.4 11.9 327 10.1
2006-08-23 06:54:19 51°15.863 2°53.361 337.8 11.9 329 10.1
2006-08-23 06:54:25 51°15.88 2°53.345 339.2 11.9 329 10.2
2006-08-23 06:54:30 51°15.895 2°53.332 340.1 11.9 330 10.2
2006-08-23 06:54:34 51°15.906 2°53.322 341.1 11.9 331 10.3
2006-08-23 06:54:40 51°15.923 2°53.307 341.6 11.9 332 10.3
2006-08-23 06:54:45 51°15.938 2°53.295 342 11.9 332 10.3
2006-08-23 06:54:50 51°15.952 2°53.282 342.5 11.8 332 10.3
2006-08-23 06:54:54 51°15.964 2°53.272 342.3 11.8 331 10.5
2006-08-23 06:54:59 51°15.978 2°53.259 341.9 11.9 331 10.5
2006-08-23 06:55:04 51°15.993 2°53.247 341.8 11.9 331 10.4
2006-08-23 06:55:10 51°16.01 2°53.231 341.6 11.9 331 10.5
2006-08-23 06:55:15 51°16.024 2°53.219 341.7 11.9 332 10.5
2006-08-23 06:55:19 51°16.036 2°53.208 342.2 11.9 331 10.6
2006-08-23 06:55:24 51°16.05 2°53.196 342.5 11.9 332 10.6
2006-08-23 06:55:30 51°16.068 2°53.181 342.3 11.9 331 10.6
2006-08-23 06:55:35 51°16.082 2°53.168 341.8 11.9 331 10.6
2006-08-23 06:55:39 51°16.094 2°53.157 341.3 11.9 330 10.7
2006-08-23 06:55:44 51°16.108 2°53.144 340.7 11.9 329 10.7
2006-08-23 06:55:49 51°16.122 2°53.13 339.2 11.9 328 10.6
2006-08-23 06:55:54 51°16.136 2°53.115 337.9 12 327 10.6
2006-08-23 06:55:58 51°16.147 2°53.103 337.1 11.9 326 10.7
2006-08-23 06:56:04 51°16.163 2°53.086 336.7 11.9 326 10.8
2006-08-23 06:56:08 51°16.175 2°53.075 337.4 12 328 10.7
2006-08-23 06:56:14 51°16.191 2°53.058 338.2 11.9 328 10.7
2006-08-23 06:56:19 51°16.205 2°53.044 338.6 11.9 328 10.8
2006-08-23 06:56:24 51°16.219 2°53.03 338.3 12 327 10.9
2006-08-23 06:56:30 51°16.236 2°53.012 337 11.9 326 10.7
2006-08-23 06:56:33 51°16.244 2°53.004 336.5 12 326 10.7
2006-08-23 06:56:40 51°16.263 2°52.982 335.8 11.9 325 10.8
2006-08-23 06:56:44 51°16.274 2°52.97 335.2 11.9 324 10.9
2006-08-23 06:56:49 51°16.287 2°52.955 334.7 12 324 10.8
2006-08-23 06:56:54 51°16.301 2°52.939 334.5 12 324 10.8
2006-08-23 06:56:59 51°16.314 2°52.924 334.5 12 324 10.8
2006-08-23 06:57:04 51°16.328 2°52.908 334.5 12 325 10.9
2006-08-23 06:57:09 51°16.341 2°52.894 335.9 11.9 327 10.8
2006-08-23 06:57:14 51°16.356 2°52.88 337.5 11.9 329 10.8
2006-08-23 06:57:20 51°16.373 2°52.865 338.8 11.9 330 10.9
2006-08-23 06:57:24 51°16.384 2°52.855 339.6 11.9 330 10.8
2006-08-23 06:57:30 51°16.401 2°52.84 340.9 11.8 332 10.8
2006-08-23 06:57:34 51°16.413 2°52.83 341 11.8 332 10.8
2006-08-23 06:57:40 51°16.43 2°52.815 341.2 11.7 332 10.8
2006-08-23 06:57:44 51°16.442 2°52.806 341.8 11.7 333 10.8
2006-08-23 06:57:50 51°16.459 2°52.792 341.7 11.8 332 10.6
2006-08-23 06:57:54 51°16.47 2°52.781 340.4 11.7 331 10.5
2006-08-23 06:58:00 51°16.488 2°52.766 339.8 11.7 331 10.6
2006-08-23 06:58:04 51°16.499 2°52.756 339.5 11.8 331 10.6
2006-08-23 06:58:09 51°16.513 2°52.743 339.3 11.8 331 10.5
2006-08-23 06:58:15 51°16.531 2°52.728 339.5 11.8 331 10.5
2006-08-23 06:58:18 51°16.539 2°52.721 340.1 11.7 332 10.5
2006-08-23 06:58:24 51°16.557 2°52.707 340.8 11.7 333 10.4
2006-08-23 06:58:29 51°16.571 2°52.695 341.1 11.7 333 10.3
2006-08-23 06:58:35 51°16.589 2°52.681 340.9 11.7 332 10.3
2006-08-23 06:58:40 51°16.603 2°52.669 340.7 11.7 332 10.2
2006-08-23 06:58:44 51°16.614 2°52.659 340.7 11.7 332 10.1
2006-08-23 06:58:50 51°16.632 2°52.646 341 11.6 333 10
2006-08-23 06:58:54 51°16.643 2°52.636 341.1 11.6 333 9.9
2006-08-23 06:59:00 51°16.66 2°52.621 340.3 11.6 332 9.8
2006-08-23 06:59:04 51°16.671 2°52.611 338.5 11.6 330 9.6
2006-08-23 06:59:10 51°16.687 2°52.594 337.1 11.6 329 9.6
2006-08-23 06:59:14 51°16.698 2°52.583 335.7 11.6 327 9.3
2006-08-23 06:59:19 51°16.711 2°52.569 334.9 11.5 326 9.1
2006-08-23 06:59:24 51°16.724 2°52.554 334.3 11.5 326 8.9
2006-08-23 06:59:30 51°16.74 2°52.537 333.8 11.4 325 8.8
2006-08-23 06:59:34 51°16.75 2°52.525 333.7 11.4 325 8.8
2006-08-23 06:59:38 51°16.761 2°52.513 333.2 11.5 325 8.9
2006-08-23 06:59:44 51°16.776 2°52.497 333.3 11.5 325 8.8
2006-08-23 06:59:50 51°16.793 2°52.481 334.9 11.4 328 8.9
2006-08-23 06:59:54 51°16.803 2°52.47 336.6 11.4 329 9
2006-08-23 07:00:00 51°16.82 2°52.456 338 11.4 331 8.9
2006-08-23 07:00:04 51°16.831 2°52.446 339 11.3 331 9
2006-08-23 07:00:10 51°16.848 2°52.431 339.9 11.3 332 9
2006-08-23 07:00:14 51°16.859 2°52.422 340.1 11.3 331 8.9
2006-08-23 07:00:20 51°16.875 2°52.408 340.4 11.4 331 8.8
2006-08-23 07:00:24 51°16.886 2°52.398 340.3 11.3 332 8.7
2006-08-23 07:00:29 51°16.9 2°52.386 340 11.4 332 8.5
2006-08-23 07:00:34 51°16.914 2°52.374 339.5 11.4 331 8.5
2006-08-23 07:00:40 51°16.93 2°52.358 338.9 11.2 330 8.5
2006-08-23 07:00:44 51°16.941 2°52.348 337.6 11.2 328 8.6
2006-08-23 07:00:50 51°16.957 2°52.332 336.9 11.4 328 8.8
2006-08-23 07:00:54 51°16.968 2°52.322 336.9 11.4 329 8.7
2006-08-23 07:01:00 51°16.984 2°52.306 337.5 11.3 329 8.8
2006-08-23 07:01:04 51°16.995 2°52.296 337.7 11.4 330 8.9
2006-08-23 07:01:09 51°17.008 2°52.283 337.9 11.4 330 8.9
2006-08-23 07:01:14 51°17.022 2°52.271 338.2 11.2 330 9
2006-08-23 07:01:20 51°17.037 2°52.257 338.6 10.6 330 9.1
2006-08-23 07:01:23 51°17.044 2°52.251 339.4 10.1 330 9.1
2006-08-23 07:01:30 51°17.06 2°52.236 339.9 9.3 331 9.2
2006-08-23 07:01:34 51°17.068 2°52.229 340.4 8.8 331 9.2
2006-08-23 07:01:38 51°17.076 2°52.223 341 8 331 9.4
2006-08-23 07:01:44 51°17.087 2°52.213 341.2 7.7 330 9.4
2006-08-23 07:01:50 51°17.097 2°52.204 341.4 7.3 331 9.4
2006-08-23 07:01:54 51°17.103 2°52.198 341.4 6.9 331 9.4
2006-08-23 07:01:58 51°17.11 2°52.192 341.4 6.4 330 9.4
2006-08-23 07:02:04 51°17.118 2°52.184 341.1 6.3 329 9.5
2006-08-23 07:02:10 51°17.126 2°52.175 340.7 5.8 328 9.6
2006-08-23 07:02:14 51°17.132 2°52.17 339.5 5.7 327 9.6
2006-08-23 07:02:19 51°17.138 2°52.163 338.6 5.5 325 9.6
2006-08-23 07:02:24 51°17.144 2°52.156 337.6 5.4 325 9.6
2006-08-23 07:02:30 51°17.15 2°52.147 336.5 5.1 323 9.6
2006-08-23 07:02:34 51°17.155 2°52.142 335.4 5.2 322 9.6
2006-08-23 07:02:40 51°17.162 2°52.133 335.5 5.5 323 9.6
2006-08-23 07:02:43 51°17.166 2°52.129 337.2 5.7 326 9.7
2006-08-23 07:02:49 51°17.175 2°52.122 339.9 5.6 330 9.8
2006-08-23 07:02:54 51°17.181 2°52.116 343 5.6 332 9.7
2006-08-23 07:03:00 51°17.19 2°52.111 347.6 5.5 338 9.6
2006-08-23 07:03:04 51°17.196 2°52.109 352.2 5.4 344 9.7
2006-08-23 07:03:10 51°17.204 2°52.107 357.6 5.3 349 9.6
2006-08-23 07:03:14 51°17.21 2°52.106 2.6 5.3 354 9.7
2006-08-23 07:03:20 51°17.219 2°52.106 7.1 5.3 -999 9.6
2006-08-23 07:03:25 51°17.226 2°52.107 11.2 5.3 5 9.6
2006-08-23 07:03:30 51°17.233 2°52.108 13.9 5.3 5 9.6
2006-08-23 07:03:34 51°17.239 2°52.11 15.1 5.3 7 9.7
2006-08-23 07:03:40 51°17.247 2°52.111 15.9 5.1 7 9.7
2006-08-23 07:03:44 51°17.253 2°52.113 16.2 4.8 10 9.8
2006-08-23 07:03:50 51°17.26 2°52.114 16.8 4.5 7 9.8
2006-08-23 07:03:55 51°17.265 2°52.116 17.4 4.4 8 9.8
2006-08-23 07:03:59 51°17.27 2°52.117 17.9 4 9 9.9
2006-08-23 07:04:04 51°17.275 2°52.118 18.1 3.7 9 9.9
2006-08-23 07:04:09 51°17.28 2°52.119 18.1 3.5 8 10
2006-08-23 07:04:14 51°17.284 2°52.12 18.1 3.4 8 9.8
2006-08-23 07:04:20 51°17.289 2°52.121 18.4 3.2 8 9.9
2006-08-23 07:04:24 51°17.292 2°52.122 18.6 3.1 9 9.9
2006-08-23 07:04:30 51°17.297 2°52.123 18.7 2.9 9 9.8
2006-08-23 07:04:34 51°17.3 2°52.124 18.7 2.8 9 9.8
2006-08-23 07:04:40 51°17.304 2°52.125 18.7 2.6 8 9.8
2006-08-23 07:04:44 51°17.307 2°52.125 18.6 2.5 7 9.7
2006-08-23 07:04:50 51°17.311 2°52.126 18.6 2.3 8 9.7
2006-08-23 07:04:54 51°17.313 2°52.127 18.4 2 9 9.8
2006-08-23 07:05:00 51°17.315 2°52.127 18.9 1.6 8 9.8
2006-08-23 07:05:04 51°17.316 2°52.127 20.5 1.3 2 9.8
2006-08-23 07:05:10 51°17.318 2°52.128 23.5 1 8 9.7
2006-08-23 07:05:14 51°17.319 2°52.128 27.3 0.9 14 9.8
2006-08-23 07:05:19 51°17.319 2°52.128 30.5 0.5 25 9.7
2006-08-23 07:05:24 51°17.32 2°52.128 33.4 0.3 355 9.8
2006-08-23 07:05:29 51°17.32 2°52.128 37.7 0.2 23 9.8
2006-08-23 07:05:34 51°17.32 2°52.129 41.3 0.1 61 9.8
2006-08-23 07:05:40 51°17.32 2°52.13 44.2 0.2 46 9.8
2006-08-23 07:05:44 51°17.32 2°52.13 46.6 0.2 73 9.8
2006-08-23 07:05:50 51°17.32 2°52.13 49.3 0.3 99 9.8
2006-08-23 07:05:54 51°17.32 2°52.131 51.5 0.2 109 9.8
2006-08-23 07:06:00 51°17.32 2°52.132 53.5 0.2 101 9.8
2006-08-23 07:06:04 51°17.32 2°52.132 55.4 0.3 119 9.8
2006-08-23 07:06:10 51°17.32 2°52.133 56.6 0.3 120 9.8
2006-08-23 07:06:14 51°17.319 2°52.133 58 0.4 121 9.8
2006-08-23 07:06:18 51°17.319 2°52.134 59.2 0.4 126 9.9
2006-08-23 07:06:23 51°17.319 2°52.134 60.2 0.4 134 9.9
2006-08-23 07:06:30 51°17.319 2°52.136 61.1 0.4 120 9.8
2006-08-23 07:06:34 51°17.318 2°52.137 62.4 0.6 115 9.9
2006-08-23 07:06:39 51°17.318 2°52.138 63.4 0.7 102 9.8
2006-08-23 07:06:44 51°17.318 2°52.14 64.5 0.7 93 9.8
2006-08-23 07:06:50 51°17.318 2°52.142 65.4 0.9 95 9.8
2006-08-23 07:06:54 51°17.318 2°52.144 66.2 0.9 84 9.8
2006-08-23 07:07:00 51°17.318 2°52.148 66.7 1.3 82 9.8
2006-08-23 07:07:04 51°17.319 2°52.151 67.2 1.6 80 9.7
2006-08-23 07:07:10 51°17.319 2°52.157 67.5 2 78 9.8
2006-08-23 07:07:14 51°17.32 2°52.161 67.3 2.3 75 9.7
2006-08-23 07:07:20 51°17.322 2°52.168 66 2.6 71 9.6
2006-08-23 07:07:23 51°17.323 2°52.171 63.9 2.9 68 9.6
2006-08-23 07:07:29 51°17.325 2°52.179 61.3 3.2 66 9.7
2006-08-23 07:07:34 51°17.327 2°52.185 58.1 3.4 59 9.7
2006-08-23 07:07:40 51°17.331 2°52.194 55.6 3.6 58 9.6
2006-08-23 07:07:45 51°17.334 2°52.2 53.9 3.7 56 9.6
2006-08-23 07:07:49 51°17.336 2°52.206 53.1 3.9 58 9.7
2006-08-23 07:07:54 51°17.339 2°52.214 52.8 4 53 9.7
2006-08-23 07:08:00 51°17.344 2°52.223 52.9 4.2 53 9.6
2006-08-23 07:08:05 51°17.347 2°52.231 53 4.3 54 9.6
2006-08-23 07:08:10 51°17.351 2°52.239 53.8 4.4 55 9.6
2006-08-23 07:08:14 51°17.353 2°52.245 54.4 4.5 56 9.6
2006-08-23 07:08:20 51°17.358 2°52.256 54.4 4.6 56 9.6
2006-08-23 07:08:24 51°17.361 2°52.262 54.4 4.7 55 9.7
2006-08-23 07:08:30 51°17.365 2°52.272 54.3 4.6 55 9.6
2006-08-23 07:08:34 51°17.368 2°52.279 54.2 4.4 56 9.7
2006-08-23 07:08:40 51°17.372 2°52.288 54.1 4.2 55 9.7
2006-08-23 07:08:44 51°17.375 2°52.294 54.1 4.2 55 9.6
2006-08-23 07:08:50 51°17.378 2°52.303 54.3 4 55 9.5
2006-08-23 07:08:54 51°17.38 2°52.309 54.6 4 58 9.6
2006-08-23 07:08:59 51°17.383 2°52.316 54.6 3.9 55 9.6
2006-08-23 07:09:04 51°17.386 2°52.323 55 3.8 56 9.5
2006-08-23 07:09:09 51°17.389 2°52.329 55.1 3.5 57 9.6
2006-08-23 07:09:14 51°17.391 2°52.336 55.1 3.3 58 9.6
2006-08-23 07:09:18 51°17.393 2°52.34 55.4 3.1 61 9.5
2006-08-23 07:09:24 51°17.395 2°52.347 55.8 2.9 62 9.5
2006-08-23 07:09:30 51°17.397 2°52.354 56.9 2.8 62 9.6
2006-08-23 07:09:35 51°17.399 2°52.359 57.3 2.6 61 9.5
2006-08-23 07:09:40 51°17.4 2°52.363 58.2 2.5 65 9.5
2006-08-23 07:09:44 51°17.401 2°52.367 59.1 2.5 67 9.4
2006-08-23 07:09:49 51°17.402 2°52.372 59.6 2.3 71 9.5
2006-08-23 07:09:54 51°17.403 2°52.376 59.9 2 70 9.4
2006-08-23 07:10:00 51°17.404 2°52.38 60.9 1.8 73 9.4
2006-08-23 07:10:04 51°17.405 2°52.383 62.4 1.7 79 9.5
2006-08-23 07:10:10 51°17.405 2°52.387 64.4 1.4 88 9.6
2006-08-23 07:10:14 51°17.404 2°52.389 66.3 1.2 87 9.6
2006-08-23 07:10:20 51°17.404 2°52.391 67.9 1.1 95 9.7
2006-08-23 07:10:24 51°17.404 2°52.391 68.8 0.5 126 9.6
2006-08-23 07:10:30 51°17.403 2°52.391 68.4 0.5 169 9.5
2006-08-23 07:10:34 51°17.402 2°52.392 68.4 0.6 158 9.6
2006-08-23 07:10:40 51°17.401 2°52.392 68.2 0.5 161 9.6
2006-08-23 07:10:44 51°17.401 2°52.393 68.4 0.6 158 9.6
2006-08-23 07:10:50 51°17.4 2°52.393 69.2 0.6 159 9.6
2006-08-23 07:10:54 51°17.399 2°52.394 69.5 0.5 166 9.6
2006-08-23 07:11:00 51°17.398 2°52.394 70.1 0.6 161 9.6
2006-08-23 07:11:04 51°17.398 2°52.395 71.2 0.7 158 9.6
2006-08-23 07:11:10 51°17.397 2°52.395 72.3 0.6 156 9.7
2006-08-23 07:11:14 51°17.397 2°52.395 73.2 0.5 158 9.6
2006-08-23 07:11:20 51°17.396 2°52.396 74.1 0.6 159 9.6
2006-08-23 07:11:24 51°17.395 2°52.397 74.9 0.5 154 9.6
2006-08-23 07:11:30 51°17.394 2°52.398 76 0.6 131 9.6
2006-08-23 07:11:34 51°17.394 2°52.4 76.7 0.9 129 9.6
2006-08-23 07:11:39 51°17.393 2°52.402 77 1 103 9.6
2006-08-23 07:11:44 51°17.393 2°52.405 77.2 1.3 97 9.6
2006-08-23 07:11:50 51°17.393 2°52.41 76.9 1.8 92 9.5
2006-08-23 07:11:54 51°17.393 2°52.415 76 2.3 89 9.6
2006-08-23 07:12:00 51°17.394 2°52.422 74.4 2.7 82 9.5
2006-08-23 07:12:04 51°17.395 2°52.428 71.6 3.2 78 9.5
2006-08-23 07:12:10 51°17.397 2°52.437 68.7 3.6 72 9.4
2006-08-23 07:12:13 51°17.398 2°52.442 65.6 3.9 70 9.4
2006-08-23 07:12:20 51°17.401 2°52.455 63.1 4.3 66 9.5
2006-08-23 07:12:23 51°17.403 2°52.46 61.4 4.6 64 9.5
2006-08-23 07:12:30 51°17.408 2°52.473 60.3 4.9 62 9.5
2006-08-23 07:12:34 51°17.41 2°52.482 59.7 5 62 9.5
2006-08-23 07:12:40 51°17.415 2°52.494 58.9 5.2 60 9.4
2006-08-23 07:12:44 51°17.418 2°52.502 58.4 5.4 58 9.4
2006-08-23 07:12:50 51°17.423 2°52.515 57.8 5.6 58 9.4
2006-08-23 07:12:54 51°17.426 2°52.524 57.4 5.7 58 9.4
2006-08-23 07:13:00 51°17.432 2°52.537 56.4 5.9 57 9.4
2006-08-23 07:13:04 51°17.436 2°52.545 54.4 5.9 53 9.4
2006-08-23 07:13:10 51°17.442 2°52.558 52.9 6 53 9.3
2006-08-23 07:13:14 51°17.446 2°52.566 52.1 6.1 51 9.4
2006-08-23 07:13:19 51°17.452 2°52.576 51.5 6.1 50 9.4
2006-08-23 07:13:24 51°17.457 2°52.586 50.6 6.1 51 9.7
2006-08-23 07:13:30 51°17.464 2°52.597 48 6.1 44 9.4
2006-08-23 07:13:34 51°17.47 2°52.604 44.7 6 41 9.1
2006-08-23 07:13:40 51°17.478 2°52.613 41.1 6 37 9.3
2006-08-23 07:13:44 51°17.484 2°52.619 37.8 6 33 9.3
2006-08-23 07:13:50 51°17.492 2°52.627 34.7 6.1 30 9.4
2006-08-23 07:13:53 51°17.497 2°52.631 33 6 29 9.4
2006-08-23 07:14:00 51°17.506 2°52.639 32.5 5.8 29 9.4
2006-08-23 07:14:04 51°17.512 2°52.644 32.8 5.5 30 9.2
2006-08-23 07:14:10 51°17.519 2°52.651 33.4 5.3 30 9.3
2006-08-23 07:14:15 51°17.525 2°52.657 33.9 5.1 30 9.3
2006-08-23 07:14:20 51°17.531 2°52.662 34.4 4.9 30 9.5
2006-08-23 07:14:24 51°17.535 2°52.667 35.3 4.8 32 9.5
2006-08-23 07:14:29 51°17.541 2°52.672 36.1 4.7 32 9.4
2006-08-23 07:14:34 51°17.546 2°52.678 37.1 4.5 35 9.5
2006-08-23 07:14:40 51°17.552 2°52.684 38 4.3 35 9.5
2006-08-23 07:14:44 51°17.556 2°52.689 38.8 4.3 36 9.3
2006-08-23 07:14:49 51°17.56 2°52.694 39.4 4.2 36 9.4
2006-08-23 07:14:54 51°17.564 2°52.7 39.8 3.9 38 9.5
2006-08-23 07:15:00 51°17.569 2°52.705 40.6 3.7 39 9.4
2006-08-23 07:15:05 51°17.573 2°52.71 41.3 3.5 39 9.4
2006-08-23 07:15:09 51°17.575 2°52.714 42.3 3.4 41 9.4
2006-08-23 07:15:15 51°17.579 2°52.72 43.2 3.2 43 9.4
2006-08-23 07:15:20 51°17.582 2°52.724 44.2 3 42 9.5
2006-08-23 07:15:24 51°17.585 2°52.728 45.2 2.9 44 9.4
2006-08-23 07:15:29 51°17.587 2°52.732 46.2 2.8 46 9.4
2006-08-23 07:15:34 51°17.59 2°52.737 46.5 2.6 46 9.4
2006-08-23 07:15:40 51°17.592 2°52.741 46.5 2.4 45 9.5
2006-08-23 07:15:44 51°17.594 2°52.744 46.4 2.3 46 9.4
2006-08-23 07:15:50 51°17.597 2°52.748 46.3 2.2 46 9.6
2006-08-23 07:15:54 51°17.598 2°52.751 46.3 2 47 9.5
2006-08-23 07:16:00 51°17.6 2°52.754 46.2 1.9 47 9.4
2006-08-23 07:16:04 51°17.601 2°52.757 45.9 1.8 49 9.4
2006-08-23 07:16:10 51°17.603 2°52.76 45.7 1.7 48 9.4
2006-08-23 07:16:14 51°17.604 2°52.762 45.7 1.6 47 9.4
2006-08-23 07:16:20 51°17.606 2°52.764 45.8 1.2 47 9.3
2006-08-23 07:16:23 51°17.606 2°52.765 45.7 1 51 9.3
2006-08-23 07:16:29 51°17.606 2°52.766 44.5 0.4 63 9.2
2006-08-23 07:16:34 51°17.606 2°52.766 42.6 0.2 105 9.3
2006-08-23 07:16:40 51°17.606 2°52.767 40.6 0.1 113 9.3
2006-08-23 07:16:44 51°17.606 2°52.767 39.1 0.1 125 9.3
2006-08-23 07:16:50 51°17.606 2°52.767 37.7 0.1 114 9.3
2006-08-23 07:16:54 51°17.606 2°52.767 36.6 0.1 138 9.3
2006-08-23 07:17:00 51°17.606 2°52.767 35.3 0.1 178 9.3
2006-08-23 07:17:04 51°17.606 2°52.767 34.1 0.1 184 9.3
2006-08-23 07:17:10 51°17.606 2°52.767 33 -999 165 9.3
2006-08-23 07:17:14 51°17.606 2°52.767 32.2 -999 164 9.3
2006-08-23 07:17:20 51°17.606 2°52.767 30.9 0.1 259 9.3
2006-08-23 07:17:24 51°17.606 2°52.767 30 0.1 125 9.3
2006-08-23 07:17:30 51°17.606 2°52.767 29.7 0.1 316 9.3
2006-08-23 07:17:34 51°17.606 2°52.767 28.7 0.2 343 9.3
2006-08-23 07:17:40 51°17.607 2°52.767 28.6 0.4 27 9.2
2006-08-23 07:17:44 51°17.608 2°52.768 28.9 0.9 25 9.3
2006-08-23 07:17:50 51°17.61 2°52.77 30 1.5 30 9.4
2006-08-23 07:17:54 51°17.613 2°52.773 32 2.1 32 9.3
2006-08-23 07:17:59 51°17.616 2°52.777 35.4 3 37 9.5
2006-08-23 07:18:04 51°17.62 2°52.782 39.8 3.5 40 9.5
2006-08-23 07:18:10 51°17.625 2°52.791 44.6 3.9 45 9.5
2006-08-23 07:18:14 51°17.628 2°52.797 49.6 4.4 52 9.4
2006-08-23 07:18:20 51°17.632 2°52.809 54.9 5 57 9.3
2006-08-23 07:18:23 51°17.634 2°52.815 58.4 5.4 62 9.4
2006-08-23 07:18:30 51°17.64 2°52.832 61.2 6.1 62 9.4
2006-08-23 07:18:34 51°17.643 2°52.843 62.4 6.4 63 9.3
2006-08-23 07:18:40 51°17.649 2°52.859 62.5 7 63 9.3
2006-08-23 07:18:44 51°17.652 2°52.871 62.4 7.4 62 9.3
2006-08-23 07:18:49 51°17.658 2°52.887 62 7.8 62 9.3
2006-08-23 07:18:54 51°17.663 2°52.903 61.3 8 60 9.3
2006-08-23 07:19:00 51°17.67 2°52.922 61.5 8.3 62 9.4
2006-08-23 07:19:05 51°17.676 2°52.938 60.8 8.4 59 9.3
2006-08-23 07:19:10 51°17.683 2°52.954 58.9 8.6 58 9.2
2006-08-23 07:19:14 51°17.688 2°52.967 57.6 8.7 55 9.2
2006-08-23 07:19:20 51°17.697 2°52.986 56.6 8.9 54 9.3
2006-08-23 07:19:24 51°17.703 2°52.998 55.7 8.9 54 9.2
2006-08-23 07:19:30 51°17.712 2°53.017 54.9 9 52 9.1
2006-08-23 07:19:34 51°17.718 2°53.03 54.2 9 53 9.2
2006-08-23 07:19:40 51°17.728 2°53.049 54.2 9.1 52 9.6
2006-08-23 07:19:44 51°17.733 2°53.063 54 9.1 54 9.1
2006-08-23 07:19:50 51°17.743 2°53.082 54.1 9.1 52 9.2
2006-08-23 07:19:54 51°17.749 2°53.095 54.4 9.2 53 9.1
2006-08-23 07:19:59 51°17.757 2°53.111 54.4 9.2 51 9.2
2006-08-23 07:20:04 51°17.765 2°53.127 54 9.2 53 9.2
2006-08-23 07:20:10 51°17.774 2°53.146 54.5 9.2 53 9.1
2006-08-23 07:20:15 51°17.782 2°53.162 53.9 9.2 52 9.3
2006-08-23 07:20:19 51°17.789 2°53.175 53.5 9.2 51 9.2
2006-08-23 07:20:24 51°17.797 2°53.191 52.8 9.2 50 9.2
2006-08-23 07:20:29 51°17.805 2°53.207 52.8 9.2 51 9.2
2006-08-23 07:20:34 51°17.813 2°53.223 52.8 9.2 51 9.2
2006-08-23 07:20:39 51°17.821 2°53.238 52.9 9.2 51 9.2
2006-08-23 07:20:44 51°17.829 2°53.254 52.9 9.2 51 9.3
2006-08-23 07:20:50 51°17.839 2°53.273 52.9 9.3 51 9.3
2006-08-23 07:20:54 51°17.845 2°53.286 53.1 9.2 51 9.3
2006-08-23 07:21:00 51°17.855 2°53.305 53 9.2 51 9.2
2006-08-23 07:21:04 51°17.862 2°53.317 52.7 9.3 50 9.2
2006-08-23 07:21:09 51°17.869 2°53.332 52.2 8.5 51 9.2
2006-08-23 07:21:14 51°17.876 2°53.345 52.7 7.9 51 9.1
2006-08-23 07:21:20 51°17.883 2°53.36 53 7.2 52 9.3
2006-08-23 07:21:23 51°17.886 2°53.367 53.6 6.8 53 9.3
2006-08-23 07:21:30 51°17.894 2°53.382 53.6 6.3 52 9.4
2006-08-23 07:21:33 51°17.897 2°53.389 54.4 5.9 54 9.4
2006-08-23 07:21:40 51°17.903 2°53.402 54.7 5.6 54 9.3
2006-08-23 07:21:45 51°17.907 2°53.411 55.2 5.2 55 9.3
2006-08-23 07:21:50 51°17.91 2°53.42 55.5 4.9 55 9.4
2006-08-23 07:21:54 51°17.913 2°53.427 56 4.8 57 9.4
2006-08-23 07:21:59 51°17.917 2°53.435 56.2 4.6 57 9.5
2006-08-23 07:22:05 51°17.921 2°53.445 55.5 4.4 55 9.4
2006-08-23 07:22:10 51°17.924 2°53.453 54.6 4.3 52 9.3
2006-08-23 07:22:14 51°17.927 2°53.458 53.6 4.2 54 9.4
2006-08-23 07:22:20 51°17.931 2°53.466 52.3 3.9 53 9.4
2006-08-23 07:22:24 51°17.934 2°53.471 50.8 3.7 50 9.4
2006-08-23 07:22:30 51°17.938 2°53.478 48.9 3.4 47 9.4
2006-08-23 07:22:34 51°17.94 2°53.482 46.7 3.3 46 9.3
2006-08-23 07:22:39 51°17.943 2°53.487 45 3.2 42 9.4
2006-08-23 07:22:44 51°17.947 2°53.491 42.4 3 41 9.4
2006-08-23 07:22:50 51°17.95 2°53.495 39.8 2.9 35 9.4
2006-08-23 07:22:54 51°17.953 2°53.497 37.5 2.8 33 9.5
2006-08-23 07:23:00 51°17.957 2°53.501 35.6 2.7 29 9.5
2006-08-23 07:23:04 51°17.959 2°53.503 34.3 2.6 29 9.4
2006-08-23 07:23:10 51°17.963 2°53.507 33.3 2.7 28 9.5
2006-08-23 07:23:13 51°17.966 2°53.508 32.7 2.7 27 9.6
2006-08-23 07:23:20 51°17.97 2°53.512 32.3 2.7 26 9.5
2006-08-23 07:23:24 51°17.973 2°53.514 32 2.8 27 9.5
2006-08-23 07:23:30 51°17.977 2°53.518 31.9 2.8 25 9.5
2006-08-23 07:23:33 51°17.979 2°53.519 32.9 2.8 28 9.5
2006-08-23 07:23:40 51°17.984 2°53.523 34.5 2.8 30 9.5
2006-08-23 07:23:44 51°17.986 2°53.526 36.4 2.8 33 9.5
2006-08-23 07:23:50 51°17.99 2°53.53 39.4 2.6 39 9.5
2006-08-23 07:23:54 51°17.992 2°53.533 42 2.5 38 9.6
2006-08-23 07:24:00 51°17.994 2°53.537 44.7 2.4 41 9.5
2006-08-23 07:24:04 51°17.996 2°53.54 47.7 2.2 46 9.5
2006-08-23 07:24:10 51°17.998 2°53.544 50.4 2 53 9.5
2006-08-23 07:24:14 51°17.999 2°53.547 53 1.8 57 9.5
2006-08-23 07:24:20 51°18 2°53.551 54.9 1.7 60 9.4
2006-08-23 07:24:23 51°18.001 2°53.553 56.9 1.7 62 9.6
2006-08-23 07:24:30 51°18.002 2°53.557 58.1 1.6 67 9.5
2006-08-23 07:24:34 51°18.003 2°53.56 59.5 1.6 66 9.5
2006-08-23 07:24:40 51°18.004 2°53.564 60.1 1.6 64 9.5
2006-08-23 07:24:44 51°18.005 2°53.566 60.7 1.6 73 9.4
2006-08-23 07:24:50 51°18.006 2°53.57 61.6 1.5 69 9.5
2006-08-23 07:24:54 51°18.006 2°53.572 62 1.4 70 9.5
2006-08-23 07:24:59 51°18.007 2°53.575 62.5 1.4 74 9.5
2006-08-23 07:25:04 51°18.007 2°53.578 62.6 1.4 78 9.4
2006-08-23 07:25:10 51°18.007 2°53.581 62.4 1.3 76 9.5
2006-08-23 07:25:14 51°18.008 2°53.583 62.7 1.1 84 9.5
2006-08-23 07:25:19 51°18.008 2°53.585 64 0.8 91 9.6
2006-08-23 07:25:24 51°18.007 2°53.586 66.2 0.5 99 9.5
2006-08-23 07:25:30 51°18.006 2°53.586 69.5 0.4 128 9.5
2006-08-23 07:25:34 51°18.006 2°53.587 73.6 0.5 138 9.4
2006-08-23 07:25:40 51°18.005 2°53.588 76.3 0.5 144 9.4
2006-08-23 07:25:44 51°18.004 2°53.588 78.2 0.6 149 9.5
2006-08-23 07:25:49 51°18.003 2°53.589 80.3 0.7 154 9.6
2006-08-23 07:25:54 51°18.003 2°53.59 82.1 0.5 153 9.5
2006-08-23 07:26:00 51°18.002 2°53.59 83.5 0.7 159 9.5
2006-08-23 07:26:05 51°18.001 2°53.591 84.5 0.8 166 9.5
2006-08-23 07:26:09 51°18 2°53.591 85.6 0.8 166 9.5
2006-08-23 07:26:14 51°18 2°53.592 87 0.6 158 9.4
2006-08-23 07:26:20 51°17.999 2°53.592 88.5 0.7 161 9.5
2006-08-23 07:26:25 51°17.997 2°53.593 89.7 0.8 162 9.5
2006-08-23 07:26:29 51°17.997 2°53.593 91.4 0.8 161 9.4
2006-08-23 07:26:34 51°17.996 2°53.594 92.3 0.8 142 9.4
2006-08-23 07:26:40 51°17.994 2°53.596 94.2 1.1 143 9.4
2006-08-23 07:26:44 51°17.993 2°53.597 95.7 1.2 142 9.4
2006-08-23 07:26:50 51°17.991 2°53.6 97.2 1.2 133 9.5
2006-08-23 07:26:54 51°17.991 2°53.602 99.4 1.4 133 9.5
2006-08-23 07:27:00 51°17.988 2°53.605 101.4 1.6 136 9.5
2006-08-23 07:27:04 51°17.987 2°53.607 103.2 1.7 130 9.4
2006-08-23 07:27:10 51°17.985 2°53.61 105.9 1.9 134 9.5
2006-08-23 07:27:15 51°17.983 2°53.614 108.1 2.2 136 9.6
2006-08-23 07:27:19 51°17.981 2°53.618 110.4 2.6 134 9.5
2006-08-23 07:27:24 51°17.978 2°53.623 113.2 2.9 133 9.4
2006-08-23 07:27:30 51°17.974 2°53.629 116.4 3.4 131 9.4
2006-08-23 07:27:34 51°17.97 2°53.634 120.3 3.7 139 9.5
2006-08-23 07:27:40 51°17.965 2°53.641 122.7 4 140 9.4
2006-08-23 07:27:44 51°17.962 2°53.646 125.9 4.3 138 9.4
2006-08-23 07:27:50 51°17.955 2°53.655 129.9 4.9 144 9.4
2006-08-23 07:27:54 51°17.949 2°53.66 132.8 5.5 142 9.3
2006-08-23 07:28:00 51°17.94 2°53.669 137.3 6.4 149 9.3
2006-08-23 07:28:04 51°17.933 2°53.675 141.5 6.9 149 9.4
2006-08-23 07:28:10 51°17.921 2°53.684 146.2 7.6 156 9.3
2006-08-23 07:28:14 51°17.912 2°53.689 150.7 8.2 158 9.2
2006-08-23 07:28:20 51°17.898 2°53.695 154.7 8.8 164 9.1
2006-08-23 07:28:23 51°17.89 2°53.698 160.1 9.2 167 9.1
2006-08-23 07:28:29 51°17.874 2°53.702 165.2 9.9 172 9.1
2006-08-23 07:28:34 51°17.86 2°53.701 171.4 10.1 179 8.9
2006-08-23 07:28:40 51°17.842 2°53.698 178.6 10.7 185 9
2006-08-23 07:28:44 51°17.83 2°53.693 185.5 11.1 191 8.9
2006-08-23 07:28:50 51°17.812 2°53.684 192.7 11.2 197 9
2006-08-23 07:28:54 51°17.8 2°53.675 198.8 11.3 202 8.9
2006-08-23 07:28:59 51°17.786 2°53.663 204 11.7 205 8.9
2006-08-23 07:29:05 51°17.769 2°53.646 211.2 11.8 213 8.8
2006-08-23 07:29:09 51°17.758 2°53.635 213.8 12.1 210 8.9
2006-08-23 07:29:14 51°17.744 2°53.619 214.4 12.3 215 8.8
2006-08-23 07:29:18 51°17.732 2°53.609 214.2 12.3 211 8.9
2006-08-23 07:29:24 51°17.714 2°53.591 212.7 12.6 213 8.9
2006-08-23 07:29:29 51°17.699 2°53.576 213.8 12.7 212 8.7
2006-08-23 07:29:34 51°17.684 2°53.561 213.7 12.8 212 8.9
2006-08-23 07:29:40 51°17.666 2°53.542 214.8 12.7 213 8.8
2006-08-23 07:29:44 51°17.654 2°53.53 213.8 12.8 211 8.8
2006-08-23 07:29:49 51°17.639 2°53.515 214.1 12.9 213 8.7
2006-08-23 07:29:54 51°17.624 2°53.5 214.1 12.9 212 8.7
2006-08-23 07:30:00 51°17.606 2°53.481 213.9 12.8 212 8.6
2006-08-23 07:30:04 51°17.594 2°53.47 214 12.8 212 8.7
2006-08-23 07:30:10 51°17.576 2°53.452 213 12.8 212 8.7
2006-08-23 07:30:15 51°17.56 2°53.436 213.1 13 212 8.6
2006-08-23 07:30:20 51°17.545 2°53.42 214.1 13 213 8.7
2006-08-23 07:30:24 51°17.534 2°53.408 215.7 12.7 215 8.9
2006-08-23 07:30:30 51°17.516 2°53.388 215.3 12.9 213 8.6
2006-08-23 07:30:34 51°17.505 2°53.373 217.5 13.1 218 8.9
2006-08-23 07:30:39 51°17.49 2°53.356 220.5 12.8 218 8.7
2006-08-23 07:30:44 51°17.476 2°53.339 220.2 12.9 217 8.4
2006-08-23 07:30:49 51°17.463 2°53.32 221.9 12.9 221 8.5
2006-08-23 07:30:54 51°17.449 2°53.303 222 12.8 218 8.5
2006-08-23 07:31:00 51°17.432 2°53.281 221.4 13.1 219 8.4
2006-08-23 07:31:04 51°17.421 2°53.265 222.8 13 221 8.7
2006-08-23 07:31:09 51°17.407 2°53.248 223.7 12.7 219 8.5
2006-08-23 07:31:14 51°17.393 2°53.23 220.8 13 217 8.5
2006-08-23 07:31:20 51°17.376 2°53.208 222.1 13 221 8.6
2006-08-23 07:31:24 51°17.365 2°53.195 220.4 12.8 216 8.5
2006-08-23 07:31:30 51°17.347 2°53.175 218.5 12.8 217 8.5
2006-08-23 07:31:34 51°17.335 2°53.162 217.1 13 214 8.4
2006-08-23 07:31:39 51°17.321 2°53.145 217.3 13 216 8.5
2006-08-23 07:31:44 51°17.306 2°53.129 218 12.9 216 8.4
2006-08-23 07:31:49 51°17.292 2°53.111 219.4 12.8 218 8.5
2006-08-23 07:31:54 51°17.278 2°53.094 219.5 13 217 8.4
2006-08-23 07:32:00 51°17.261 2°53.072 221.5 13.1 220 8.4
2006-08-23 07:32:05 51°17.247 2°53.055 222.4 12.9 220 8.5
2006-08-23 07:32:09 51°17.236 2°53.041 220.6 12.7 218 8.4
2006-08-23 07:32:14 51°17.221 2°53.024 219.4 12.9 216 8.4
2006-08-23 07:32:20 51°17.204 2°53.004 219.1 12.9 216 8.4
2006-08-23 07:32:24 51°17.192 2°52.991 217.5 12.9 214 8.5
2006-08-23 07:32:30 51°17.174 2°52.972 217.7 12.8 216 8.4
2006-08-23 07:32:33 51°17.166 2°52.962 217.4 12.9 215 8.8
2006-08-23 07:32:40 51°17.145 2°52.939 217.5 12.9 215 8.6
2006-08-23 07:32:44 51°17.133 2°52.927 217 12.8 214 8.6
2006-08-23 07:32:50 51°17.115 2°52.906 216.2 13.1 214 8.6
2006-08-23 07:32:54 51°17.104 2°52.893 218.4 12.9 217 8.9
2006-08-23 07:33:00 51°17.087 2°52.873 219 12.8 216 8.8
2006-08-23 07:33:04 51°17.076 2°52.858 220 13 218 8.9
2006-08-23 07:33:10 51°17.059 2°52.837 222 12.8 219 9
2006-08-23 07:33:14 51°17.048 2°52.823 221.8 12.9 218 9
2006-08-23 07:33:20 51°17.031 2°52.801 221.2 13 219 9
2006-08-23 07:33:24 51°17.019 2°52.788 221.3 12.8 217 9
2006-08-23 07:33:30 51°17.002 2°52.767 220.1 12.9 217 9
2006-08-23 07:33:34 51°16.991 2°52.752 220.6 13 218 8.9
2006-08-23 07:33:39 51°16.977 2°52.734 222.1 12.7 220 8.9
2006-08-23 07:33:45 51°16.96 2°52.714 221.7 12.8 217 8.8
2006-08-23 07:33:50 51°16.947 2°52.695 221 13.1 219 8.9
2006-08-23 07:33:54 51°16.936 2°52.681 222.9 12.8 221 8.9
2006-08-23 07:33:59 51°16.922 2°52.664 221 12.8 217 8.9
2006-08-23 07:34:04 51°16.907 2°52.647 219.9 13 218 8.8
2006-08-23 07:34:10 51°16.89 2°52.626 221 12.8 218 9
2006-08-23 07:34:14 51°16.879 2°52.612 220.6 12.8 217 8.8
2006-08-23 07:34:20 51°16.862 2°52.591 220 12.8 218 8.9
2006-08-23 07:34:24 51°16.85 2°52.577 220 13.1 217 8.9
2006-08-23 07:34:30 51°16.834 2°52.556 222.5 12.8 221 9
2006-08-23 07:34:33 51°16.825 2°52.546 221.3 12.6 217 9
2006-08-23 07:34:40 51°16.806 2°52.52 220.4 12.9 218 9.1
2006-08-23 07:34:44 51°16.795 2°52.506 222.4 13.1 220 9.1
2006-08-23 07:34:49 51°16.781 2°52.488 222.3 12.7 218 9.3
2006-08-23 07:34:55 51°16.764 2°52.467 220.8 12.9 218 9.2
2006-08-23 07:35:00 51°16.75 2°52.449 221.4 12.9 220 9.2
2006-08-23 07:35:04 51°16.739 2°52.436 222 12.8 219 9.1
2006-08-23 07:35:10 51°16.722 2°52.415 220.8 12.8 217 8.8
2006-08-23 07:35:14 51°16.711 2°52.401 220.8 12.9 218 8.8
2006-08-23 07:35:20 51°16.694 2°52.38 221.5 12.7 219 9.1
2006-08-23 07:35:24 51°16.683 2°52.366 220.7 12.6 218 9.4
2006-08-23 07:35:30 51°16.665 2°52.346 219.3 13 217 9.4
2006-08-23 07:35:33 51°16.657 2°52.334 220.8 13 219 9.6
2006-08-23 07:35:40 51°16.637 2°52.311 220.6 12.8 216 9.7
2006-08-23 07:35:44 51°16.626 2°52.296 219.9 12.9 218 9.8
2006-08-23 07:35:50 51°16.609 2°52.276 220.4 12.9 217 9.8
2006-08-23 07:35:54 51°16.598 2°52.262 220.5 12.9 218 9.9
2006-08-23 07:35:59 51°16.584 2°52.245 220.3 12.8 218 10
2006-08-23 07:36:04 51°16.57 2°52.227 220.9 12.7 218 9.9
2006-08-23 07:36:10 51°16.553 2°52.206 221 12.8 218 10.1
2006-08-23 07:36:14 51°16.542 2°52.192 220.6 13 218 10.3
2006-08-23 07:36:19 51°16.528 2°52.174 222 12.7 220 10.4
2006-08-23 07:36:24 51°16.514 2°52.157 220.3 12.9 216 10.4
2006-08-23 07:36:30 51°16.497 2°52.135 221.1 12.9 220 10.5
2006-08-23 07:36:34 51°16.486 2°52.122 220.9 12.7 216 10.6
2006-08-23 07:36:40 51°16.469 2°52.101 219.6 12.9 218 10.6
2006-08-23 07:36:43 51°16.46 2°52.091 219.7 12.9 217 10.5
2006-08-23 07:36:49 51°16.443 2°52.07 219.9 12.7 218 10.6
2006-08-23 07:36:54 51°16.429 2°52.053 219.5 12.8 217 10.6
2006-08-23 07:37:00 51°16.412 2°52.031 220.6 12.9 219 10.7
2006-08-23 07:37:04 51°16.402 2°52.017 221.6 12.8 220 10.7
2006-08-23 07:37:09 51°16.388 2°51.999 222.6 12.7 220 10.7
2006-08-23 07:37:14 51°16.375 2°51.98 222.7 12.8 221 10.8
2006-08-23 07:37:20 51°16.358 2°51.959 223.5 12.8 220 10.9
2006-08-23 07:37:24 51°16.347 2°51.943 222.8 12.9 221 11
2006-08-23 07:37:30 51°16.331 2°51.922 223.3 12.7 220 11.1
2006-08-23 07:37:34 51°16.32 2°51.907 222.5 12.8 219 11.1
2006-08-23 07:37:40 51°16.304 2°51.885 222.5 12.9 221 11.2
2006-08-23 07:37:44 51°16.293 2°51.871 223.1 12.7 221 11.3
2006-08-23 07:37:50 51°16.276 2°51.85 221.4 12.8 218 11.3
2006-08-23 07:37:54 51°16.265 2°51.836 220.9 12.8 220 11.4
2006-08-23 07:38:00 51°16.248 2°51.816 220.6 12.8 217 11.4
2006-08-23 07:38:04 51°16.237 2°51.802 219.1 12.8 217 11.4
2006-08-23 07:38:10 51°16.22 2°51.781 219.2 12.9 217 11.5
2006-08-23 07:38:14 51°16.209 2°51.767 219.1 12.8 218 11.6
2006-08-23 07:38:20 51°16.192 2°51.747 219.4 12.8 218 11.6
2006-08-23 07:38:24 51°16.181 2°51.732 219.6 12.9 218 11.5
2006-08-23 07:38:30 51°16.164 2°51.711 220.8 12.8 220 11.7
2006-08-23 07:38:34 51°16.153 2°51.696 222.2 12.8 221 11.6
2006-08-23 07:38:40 51°16.137 2°51.674 222.2 12.8 221 11.8
2006-08-23 07:38:44 51°16.126 2°51.66 222.8 12.8 222 11.7
2006-08-23 07:38:50 51°16.111 2°51.636 223.1 12.8 223 11.7
2006-08-23 07:38:54 51°16.1 2°51.622 224.2 12.8 222 11.7
2006-08-23 07:39:00 51°16.084 2°51.599 223.8 12.8 222 11.8
2006-08-23 07:39:03 51°16.076 2°51.588 223.9 12.9 222 11.8
2006-08-23 07:39:10 51°16.058 2°51.561 224.7 12.8 224 11.8
2006-08-23 07:39:14 51°16.047 2°51.545 224.3 13 221 11.9
2006-08-23 07:39:20 51°16.032 2°51.522 224.4 12.9 223 11.9
2006-08-23 07:39:25 51°16.018 2°51.503 225.2 12.8 224 11.8
2006-08-23 07:39:29 51°16.008 2°51.488 224.3 12.9 221 11.9
2006-08-23 07:39:34 51°15.995 2°51.468 224.9 12.8 223 11.9
2006-08-23 07:39:40 51°15.978 2°51.447 222.8 12.9 220 11.9
2006-08-23 07:39:44 51°15.968 2°51.432 222.1 12.8 222 11.9
2006-08-23 07:39:50 51°15.95 2°51.411 219.6 12.9 217 11.9
2006-08-23 07:39:54 51°15.939 2°51.396 220.1 13 221 11.9
2006-08-23 07:40:00 51°15.923 2°51.376 220.6 12.7 218 12
2006-08-23 07:40:04 51°15.911 2°51.362 219.5 12.8 219 11.9
2006-08-23 07:40:10 51°15.894 2°51.341 219.4 13 218 12
2006-08-23 07:40:14 51°15.883 2°51.326 220.1 12.8 219 12.1
2006-08-23 07:40:20 51°15.867 2°51.305 219.6 12.9 218 12
2006-08-23 07:40:24 51°15.856 2°51.29 220.5 12.8 221 12
2006-08-23 07:40:30 51°15.841 2°51.269 221.5 12.1 220 12
2006-08-23 07:40:34 51°15.831 2°51.256 221.3 11.6 221 12
2006-08-23 07:40:40 51°15.817 2°51.237 221.2 11.1 221 12.1
2006-08-23 07:40:44 51°15.809 2°51.225 221.3 10.7 221 12.2
2006-08-23 07:40:50 51°15.795 2°51.208 221 10.4 220 12.2
2006-08-23 07:40:54 51°15.787 2°51.197 220.6 10.2 220 12.2
2006-08-23 07:41:00 51°15.775 2°51.18 220.5 9.6 220 12.2
2006-08-23 07:41:04 51°15.767 2°51.171 219.6 9.1 219 12.2
2006-08-23 07:41:10 51°15.756 2°51.156 219.8 8.6 220 12.2
2006-08-23 07:41:15 51°15.747 2°51.145 219.1 8.4 218 12.2
2006-08-23 07:41:20 51°15.738 2°51.134 219.1 8 220 12.2
2006-08-23 07:41:24 51°15.732 2°51.125 218.7 7.8 218 12.3
2006-08-23 07:41:30 51°15.722 2°51.113 218.8 7.5 219 12.2
2006-08-23 07:41:34 51°15.716 2°51.105 218.9 7.3 220 12.2
2006-08-23 07:41:40 51°15.707 2°51.093 218.7 7.2 220 12.3
2006-08-23 07:41:44 51°15.702 2°51.085 219 6.9 220 12.3
2006-08-23 07:41:49 51°15.695 2°51.076 218.8 6.7 219 12.2
2006-08-23 07:41:54 51°15.687 2°51.067 219.1 6.5 218 12.2
2006-08-23 07:41:59 51°15.681 2°51.057 220.3 6.4 222 12.2
2006-08-23 07:42:04 51°15.675 2°51.048 220.8 6.2 221 12.3
2006-08-23 07:42:10 51°15.667 2°51.037 222.9 6 225 12.2
2006-08-23 07:42:14 51°15.663 2°51.03 224.8 5.8 224 12.2
2006-08-23 07:42:20 51°15.657 2°51.019 227.6 5.5 227 12.3
2006-08-23 07:42:25 51°15.652 2°51.011 229.8 5.2 230 12.2
2006-08-23 07:42:30 51°15.648 2°51.002 231.8 5 230 12.3
2006-08-23 07:42:34 51°15.645 2°50.996 233.9 4.8 231 12.2
2006-08-23 07:42:40 51°15.64 2°50.986 235.3 4.6 234 12.2
2006-08-23 07:42:44 51°15.638 2°50.98 236.4 4.4 232 12.4
2006-08-23 07:42:50 51°15.633 2°50.971 238 4.2 234 12.3
2006-08-23 07:42:54 51°15.631 2°50.965 239.5 4.1 237 12.2
2006-08-23 07:43:00 51°15.628 2°50.956 240.4 4 236 12.3
2006-08-23 07:43:04 51°15.625 2°50.95 242 3.8 237 12.3
2006-08-23 07:43:10 51°15.623 2°50.942 243.4 3.6 241 12.2
2006-08-23 07:43:13 51°15.621 2°50.938 245.6 3.4 241 12.3
2006-08-23 07:43:20 51°15.619 2°50.93 248.3 3.1 244 12.2
2006-08-23 07:43:24 51°15.618 2°50.925 251.4 2.9 246 12.3
2006-08-23 07:43:30 51°15.616 2°50.919 255.4 2.6 246 12.3
2006-08-23 07:43:33 51°15.615 2°50.916 260 2.4 249 12.3
2006-08-23 07:43:40 51°15.614 2°50.91 264 2.1 251 12.3
2006-08-23 07:43:43 51°15.613 2°50.907 266.9 2 247 12.3
2006-08-23 07:43:50 51°15.612 2°50.903 270.2 1.7 250 12.3
2006-08-23 07:43:54 51°15.612 2°50.9 273.6 1.5 248 12.3
2006-08-23 07:44:00 51°15.61 2°50.899 277.2 1 230 12.3
2006-08-23 07:44:04 51°15.609 2°50.898 280.7 0.8 217 12.3
2006-08-23 07:44:10 51°15.609 2°50.897 284.3 0.6 206 12.3
2006-08-23 07:44:13 51°15.608 2°50.897 287.4 0.8 202 12.3
2006-08-23 07:44:20 51°15.607 2°50.896 291 0.7 205 -999
2006-08-23 07:44:25 51°15.606 2°50.895 293.9 0.9 205 -999
2006-08-23 07:44:30 51°15.605 2°50.895 296.1 0.8 207 -999
2006-08-23 07:44:35 51°15.604 2°50.894 298 0.8 208 -999
2006-08-23 07:44:40 51°15.603 2°50.893 300.1 0.8 208 -999
2006-08-23 07:44:45 51°15.602 2°50.892 301.9 0.8 211 -999
2006-08-23 07:44:50 51°15.601 2°50.891 303.4 0.8 211 -999
2006-08-23 07:44:55 51°15.6 2°50.89 304.8 0.9 211 -999
2006-08-23 07:45:00 51°15.599 2°50.889 306.2 0.8 204 -999
2006-08-23 07:45:05 51°15.598 2°50.888 307.4 0.9 210 -999
2006-08-23 07:45:10 51°15.597 2°50.887 308.4 0.9 214 -999
2006-08-23 07:45:15 51°15.596 2°50.886 309 0.8 212 12.2
2006-08-23 07:45:20 51°15.595 2°50.885 309.9 0.7 225 12.3
2006-08-23 07:45:24 51°15.595 2°50.884 310.7 0.8 233 12.3
2006-08-23 07:45:30 51°15.594 2°50.881 312 1 255 12.3
2006-08-23 07:45:34 51°15.594 2°50.879 314.1 1.2 261 12.3
2006-08-23 07:45:40 51°15.595 2°50.875 316.1 1.5 276 12.3
2006-08-23 07:45:43 51°15.595 2°50.873 318.2 1.7 284 12.3
2006-08-23 07:45:49 51°15.597 2°50.867 320.8 2.1 295 12.3
2006-08-23 07:45:54 51°15.599 2°50.862 323.9 2.6 302 12.3
2006-08-23 07:46:00 51°15.603 2°50.856 327.3 3.2 310 12.3
2006-08-23 07:46:05 51°15.606 2°50.85 332.1 3.5 317 12.3
2006-08-23 07:46:09 51°15.61 2°50.846 337.7 4 323 12.2
2006-08-23 07:46:14 51°15.616 2°50.841 343.7 4.4 331 12.3
2006-08-23 07:46:19 51°15.622 2°50.838 349.3 4.7 337 12.3
2006-08-23 07:46:24 51°15.628 2°50.835 355 4.9 344 12.2
2006-08-23 07:46:30 51°15.637 2°50.833 1 4.9 348 12.3
2006-08-23 07:46:34 51°15.642 2°50.833 6.6 5.2 357 12.3
2006-08-23 07:46:40 51°15.652 2°50.835 12.9 5.5 6 12.3
2006-08-23 07:46:45 51°15.659 2°50.839 19.8 5.7 14 12.3
2006-08-23 07:46:50 51°15.667 2°50.844 26.8 5.9 22 12.3
2006-08-23 07:46:54 51°15.673 2°50.85 33.3 6.1 28 12.3
2006-08-23 07:47:00 51°15.681 2°50.861 39.6 6.3 35 12.2
2006-08-23 07:47:04 51°15.686 2°50.869 45.6 6.4 42 12.3
2006-08-23 07:47:09 51°15.692 2°50.88 51.3 6.6 51 12.3
2006-08-23 07:47:14 51°15.697 2°50.892 55.9 6.8 53 12.2
2006-08-23 07:47:20 51°15.703 2°50.909 60 6.9 58 12.2
2006-08-23 07:47:25 51°15.708 2°50.923 62.9 7.1 62 12.3
2006-08-23 07:47:29 51°15.711 2°50.934 64.5 7.3 62 12.3
2006-08-23 07:47:34 51°15.716 2°50.949 64.7 7.5 63 12.3
2006-08-23 07:47:40 51°15.722 2°50.967 64.3 7.6 62 12.3
2006-08-23 07:47:44 51°15.726 2°50.979 64.3 7.7 63 12.2
2006-08-23 07:47:50 51°15.732 2°50.998 64.3 7.7 63 12.3
2006-08-23 07:47:54 51°15.736 2°51.01 64.3 7.8 63 12.3
2006-08-23 07:48:00 51°15.741 2°51.029 64.7 8 64 12.2
2006-08-23 07:48:04 51°15.746 2°51.042 65.4 8 65 12.2
2006-08-23 07:48:10 51°15.751 2°51.062 66.2 8.1 66 12.3
2006-08-23 07:48:14 51°15.754 2°51.075 67.2 8.1 67 12.2
2006-08-23 07:48:20 51°15.759 2°51.095 68 8.1 67 12.2
2006-08-23 07:48:24 51°15.763 2°51.108 68.9 8.1 69 12.3
2006-08-23 07:48:29 51°15.767 2°51.125 68.8 8.1 68 12.3
2006-08-23 07:48:34 51°15.772 2°51.14 67.8 7.8 65 12.2
2006-08-23 07:48:40 51°15.777 2°51.158 66.8 7.4 66 12.3
2006-08-23 07:48:45 51°15.781 2°51.172 65.5 7.1 64 12.3
2006-08-23 07:48:49 51°15.784 2°51.182 64.3 6.9 63 12.3
2006-08-23 07:48:54 51°15.789 2°51.195 63.2 6.6 60 12.2
2006-08-23 07:49:00 51°15.794 2°51.21 63.1 6.6 61 12.3
2006-08-23 07:49:04 51°15.797 2°51.22 64 6.2 62 12.2
2006-08-23 07:49:10 51°15.8 2°51.234 65.7 5.8 66 12.2
2006-08-23 07:49:14 51°15.802 2°51.243 66.9 5.5 67 12.2
2006-08-23 07:49:20 51°15.805 2°51.255 70.4 5 72 12.2
2006-08-23 07:49:24 51°15.806 2°51.263 73.9 4.7 76 12.3
2006-08-23 07:49:30 51°15.807 2°51.274 76.8 4.4 79 12.3
2006-08-23 07:49:34 51°15.807 2°51.281 79.4 3.9 84 12.3
2006-08-23 07:49:40 51°15.808 2°51.29 81.8 3.7 86 12.3
2006-08-23 07:49:44 51°15.808 2°51.296 84.7 3.2 89 12.3
2006-08-23 07:49:50 51°15.807 2°51.302 87 2.6 96 12.3
2006-08-23 07:49:54 51°15.807 2°51.306 88.1 2.1 100 12.3
2006-08-23 07:50:00 51°15.806 2°51.309 88.1 1.5 100 12.3
2006-08-23 07:50:04 51°15.806 2°51.311 87 1.2 106 12.3
2006-08-23 07:50:10 51°15.805 2°51.312 85.6 0.7 130 12.3
2006-08-23 07:50:15 51°15.805 2°51.312 84.5 0.3 147 12.3
2006-08-23 07:50:20 51°15.804 2°51.313 84.2 0.5 152 12.3
2006-08-23 07:50:24 51°15.804 2°51.313 84.3 0.4 148 12.3
2006-08-23 07:50:30 51°15.803 2°51.314 84.7 0.5 155 12.3
2006-08-23 07:50:35 51°15.803 2°51.314 84.9 0.4 151 12.3
2006-08-23 07:50:40 51°15.802 2°51.315 85 0.4 146 12.3
2006-08-23 07:50:43 51°15.801 2°51.315 85.6 0.5 151 12.3
2006-08-23 07:50:49 51°15.801 2°51.316 86.3 0.5 152 12.3
2006-08-23 07:50:54 51°15.8 2°51.317 86.7 0.4 145 12.3
2006-08-23 07:51:00 51°15.8 2°51.317 87.6 0.5 144 12.3
2006-08-23 07:51:04 51°15.799 2°51.318 88.1 0.5 146 12.3
2006-08-23 07:51:10 51°15.799 2°51.319 88.7 0.5 144 12.3
2006-08-23 07:51:14 51°15.798 2°51.319 89.7 0.6 140 12.4
2006-08-23 07:51:20 51°15.797 2°51.321 90.4 0.7 127 12.3
2006-08-23 07:51:25 51°15.797 2°51.323 90.7 0.9 114 12.3
2006-08-23 07:51:29 51°15.796 2°51.326 90.9 1.2 107 12.3
2006-08-23 07:51:34 51°15.796 2°51.329 90.7 1.6 106 12.3
2006-08-23 07:51:40 51°15.795 2°51.335 89.7 1.8 99 12.3
2006-08-23 07:51:44 51°15.795 2°51.339 88.1 2.4 94 12.3
2006-08-23 07:51:50 51°15.795 2°51.347 85.8 2.9 90 12.3
2006-08-23 07:51:54 51°15.795 2°51.353 83.7 3.4 86 12.3
2006-08-23 07:52:00 51°15.797 2°51.364 79.7 4 81 12.3
2006-08-23 07:52:04 51°15.798 2°51.372 75.7 4.6 75 12.2
2006-08-23 07:52:10 51°15.801 2°51.385 71.1 5.2 71 12.2
2006-08-23 07:52:14 51°15.804 2°51.394 66.3 5.5 63 12.2
2006-08-23 07:52:20 51°15.81 2°51.408 62.1 6 58 12.1
2006-08-23 07:52:24 51°15.814 2°51.417 56.1 6.3 53 12.1
2006-08-23 07:52:30 51°15.822 2°51.431 53 6.6 52 12.1
2006-08-23 07:52:33 51°15.825 2°51.438 51.7 7 49 12.1
2006-08-23 07:52:40 51°15.835 2°51.456 51.5 7.4 50 12.2
2006-08-23 07:52:44 51°15.841 2°51.467 51.8 7.9 49 12.1
2006-08-23 07:52:50 51°15.85 2°51.484 52.5 8.3 50 12.1
2006-08-23 07:52:54 51°15.856 2°51.496 52.6 8.6 51 12
2006-08-23 07:53:00 51°15.865 2°51.514 52.3 8.8 50 12.1
2006-08-23 07:53:04 51°15.872 2°51.526 52.3 9 50 12.1
2006-08-23 07:53:10 51°15.882 2°51.545 51.9 9.2 49 12.1
2006-08-23 07:53:14 51°15.888 2°51.557 51.9 9.2 50 12.1
2006-08-23 07:53:20 51°15.898 2°51.577 52.7 9.4 52 12.1
2006-08-23 07:53:24 51°15.905 2°51.59 53.5 9.5 51 12.1
2006-08-23 07:53:29 51°15.913 2°51.606 53.8 9.5 53 12.1
2006-08-23 07:53:34 51°15.921 2°51.623 53.7 9.6 51 12
2006-08-23 07:53:40 51°15.931 2°51.643 53.5 9.6 52 12
2006-08-23 07:53:44 51°15.938 2°51.656 53.5 9.7 51 12
2006-08-23 07:53:50 51°15.948 2°51.676 53.2 9.7 52 12
2006-08-23 07:53:54 51°15.955 2°51.69 53 9.7 51 11.9
2006-08-23 07:53:59 51°15.963 2°51.706 52.5 9.7 51 12
2006-08-23 07:54:05 51°15.973 2°51.725 51.9 9.5 50 12
2006-08-23 07:54:10 51°15.982 2°51.74 51.3 9.2 49 12
2006-08-23 07:54:14 51°15.988 2°51.752 50.1 8.8 48 12
2006-08-23 07:54:20 51°15.997 2°51.768 49.6 8.4 47 11.9
2006-08-23 07:54:24 51°16.004 2°51.777 47.9 8.1 45 12
2006-08-23 07:54:30 51°16.013 2°51.792 46.4 7.7 44 12
2006-08-23 07:54:34 51°16.019 2°51.8 45.4 7.3 43 12